Time;durP1;ratioP1;P1;durP2;ratioP2;P2;SDS_P1;SDS_P2;PMS_P1;PMS_P2;Temp;Humidity;BMP_temperature;BMP_pressure;BME280_temperature;BME280_humidity;BME280_pressure;Samples;Min_cycle;Max_cycle;Signal;HPM_P1;HPM_P2
2022/12/19 00:01:17;;;;;;;44.80;23.73;;;1.60;99.90;;;;;;5033525;28;20199;-76
2022/12/19 00:03:44;;;;;;;42.75;22.33;;;1.60;99.90;;;;;;5032420;28;20171;-79
2022/12/19 00:06:10;;;;;;;41.65;21.75;;;1.60;99.90;;;;;;5021278;28;20216;-75
2022/12/19 00:08:35;;;;;;;31.25;16.00;;;1.60;99.90;;;;;;5046093;28;20191;-75
2022/12/19 00:11:02;;;;;;;42.38;22.13;;;1.70;99.90;;;;;;5030066;28;20727;-74
2022/12/19 00:13:29;;;;;;;43.63;23.40;;;1.60;99.90;;;;;;5064367;28;20216;-76
2022/12/19 00:15:59;;;;;;;45.17;23.15;;;1.70;99.90;;;;;;5027844;28;20216;-77
2022/12/19 00:18:25;;;;;;;42.20;22.35;;;1.70;99.90;;;;;;5033351;28;20183;-76
2022/12/19 00:20:56;;;;;;;41.97;21.05;;;1.70;99.90;;;;;;5032030;28;20184;-77
2022/12/19 00:23:22;;;;;;;45.22;23.63;;;1.70;99.90;;;;;;5032938;28;20192;-74
2022/12/19 00:25:48;;;;;;;44.30;23.65;;;1.80;99.90;;;;;;5025522;28;20216;-75
2022/12/19 00:28:13;;;;;;;39.22;21.92;;;1.80;99.90;;;;;;5024281;28;20711;-75
2022/12/19 00:30:39;;;;;;;45.95;22.73;;;1.80;99.90;;;;;;5046425;28;20533;-75
2022/12/19 00:33:05;;;;;;;44.50;22.88;;;1.80;99.90;;;;;;5033399;28;20671;-75
2022/12/19 00:35:31;;;;;;;38.45;20.60;;;1.80;99.90;;;;;;5043327;28;20326;-75
2022/12/19 00:37:57;;;;;;;33.63;16.15;;;1.80;99.90;;;;;;5033510;28;20201;-78
2022/12/19 00:40:22;;;;;;;41.83;23.55;;;1.90;99.90;;;;;;5036525;28;20301;-75
2022/12/19 00:42:48;;;;;;;47.00;24.33;;;1.90;99.90;;;;;;5025173;28;20874;-76
2022/12/19 00:45:14;;;;;;;43.28;22.67;;;1.90;99.90;;;;;;5046251;28;20588;-75
2022/12/19 00:47:40;;;;;;;39.05;20.35;;;1.90;99.90;;;;;;5046733;28;20261;-74
2022/12/19 00:50:06;;;;;;;43.83;22.55;;;1.90;99.90;;;;;;5031154;28;20269;-74
2022/12/19 00:52:31;;;;;;;42.55;23.40;;;2.00;99.90;;;;;;5042878;28;20208;-74
2022/12/19 00:54:57;;;;;;;48.95;24.95;;;2.00;99.90;;;;;;5041668;28;20196;-75
2022/12/19 00:57:23;;;;;;;45.75;23.75;;;2.00;99.90;;;;;;5042259;28;20194;-75
2022/12/19 00:59:49;;;;;;;46.20;23.73;;;2.00;99.90;;;;;;5039083;28;20237;-74
2022/12/19 01:02:14;;;;;;;42.42;21.17;;;2.00;99.90;;;;;;5032153;28;20180;-75
2022/12/19 01:04:40;;;;;;;44.08;23.00;;;2.00;99.90;;;;;;5044220;28;20705;-75
2022/12/19 01:07:09;;;;;;;44.25;22.92;;;2.10;99.90;;;;;;5028415;28;20192;-75
2022/12/19 01:09:35;;;;;;;34.08;16.77;;;2.10;99.90;;;;;;5024809;28;20188;-78
2022/12/19 01:14:47;;;;;;;43.75;22.15;;;2.10;99.90;;;;;;5030633;28;20195;-75
2022/12/19 01:17:12;;;;;;;41.05;21.92;;;2.10;99.90;;;;;;5032038;28;20172;-75
2022/12/19 01:19:38;;;;;;;46.38;24.42;;;2.20;99.90;;;;;;5029866;28;20188;-75
2022/12/19 01:22:04;;;;;;;44.35;21.45;;;2.20;99.90;;;;;;5032334;28;20188;-75
2022/12/19 01:24:29;;;;;;;43.08;22.02;;;2.20;99.90;;;;;;5033534;28;20257;-75
2022/12/19 01:26:55;;;;;;;39.15;20.23;;;2.20;99.90;;;;;;5027899;28;20229;-75
2022/12/19 01:29:21;;;;;;;43.15;23.33;;;2.20;99.90;;;;;;5030607;28;20184;-75
2022/12/19 01:31:47;;;;;;;41.05;21.67;;;2.30;99.90;;;;;;5030848;28;20199;-81
2022/12/19 01:34:13;;;;;;;48.72;22.48;;;2.30;99.90;;;;;;5031804;28;20191;-74
2022/12/19 01:36:38;;;;;;;38.75;20.67;;;2.30;99.90;;;;;;5061512;28;20237;-75
2022/12/19 01:39:04;;;;;;;45.70;24.05;;;2.30;99.90;;;;;;5043700;28;20546;-80
2022/12/19 01:41:30;;;;;;;42.88;23.85;;;2.30;99.90;;;;;;5034666;28;20204;-75
2022/12/19 01:43:58;;;;;;;41.17;22.38;;;2.40;99.90;;;;;;5064286;28;20191;-75
2022/12/19 01:46:46;;;;;;;44.47;22.63;;;2.30;99.90;;;;;;5047302;28;20275;-75
2022/12/19 01:49:25;;;;;;;40.70;21.30;;;2.40;99.90;;;;;;5041239;28;20690;-76
2022/12/19 01:51:52;;;;;;;45.10;23.35;;;2.50;99.90;;;;;;5030750;28;20230;-77
2022/12/19 01:54:39;;;;;;;43.92;22.35;;;2.40;99.90;;;;;;5047370;28;20229;-75
2022/12/19 01:57:09;;;;;;;41.88;22.58;;;2.50;99.90;;;;;;5034396;28;20184;-75
2022/12/19 01:59:41;;;;;;;42.67;23.02;;;2.50;99.90;;;;;;5038662;28;20203;-75
2022/12/19 02:02:12;;;;;;;46.72;22.13;;;2.50;99.90;;;;;;5035436;28;20192;-75
2022/12/19 02:04:39;;;;;;;50.63;24.63;;;2.50;99.90;;;;;;5031583;28;20214;-75
2022/12/19 02:07:07;;;;;;;38.42;21.30;;;2.50;99.90;;;;;;5044806;28;20188;-77
2022/12/19 02:09:34;;;;;;;42.33;22.98;;;2.60;99.90;;;;;;5034552;28;20184;-75
2022/12/19 02:12:00;;;;;;;41.00;21.45;;;2.60;99.90;;;;;;5068506;28;20286;-75
2022/12/19 02:14:27;;;;;;;43.22;23.40;;;2.60;99.90;;;;;;5035218;28;20195;-75
2022/12/19 02:17:03;;;;;;;45.40;23.23;;;2.60;99.90;;;;;;5063973;28;20234;-75
2022/12/19 02:20:16;;;;;;;45.60;23.48;;;2.60;99.90;;;;;;5033632;28;20241;-75
2022/12/19 02:22:45;;;;;;;48.65;23.92;;;2.60;99.90;;;;;;5062304;28;20179;-75
2022/12/19 02:25:19;;;;;;;45.42;23.05;;;2.60;99.90;;;;;;5033031;28;20288;-76
2022/12/19 02:28:19;;;;;;;42.58;24.45;;;2.60;99.90;;;;;;5034684;28;20190;-75
2022/12/19 02:31:00;;;;;;;40.15;21.10;;;2.60;99.90;;;;;;5042917;28;20179;-75
2022/12/19 02:33:49;;;;;;;45.83;23.42;;;2.70;99.90;;;;;;5050208;28;20258;-75
2022/12/19 02:36:37;;;;;;;48.85;23.92;;;2.60;99.90;;;;;;5050292;28;20279;-75
2022/12/19 02:39:15;;;;;;;44.63;23.42;;;2.70;99.90;;;;;;5033904;28;20199;-76
2022/12/19 02:41:49;;;;;;;49.42;24.23;;;2.70;99.90;;;;;;5042683;28;20178;-76
2022/12/19 02:44:28;;;;;;;45.97;23.90;;;2.70;99.90;;;;;;5043771;28;20239;-75
2022/12/19 02:46:57;;;;;;;49.35;25.15;;;2.70;99.90;;;;;;5048636;28;20234;-75
2022/12/19 02:49:26;;;;;;;46.67;25.20;;;2.70;99.90;;;;;;5066734;28;20207;-77
2022/12/19 02:51:52;;;;;;;51.17;25.05;;;2.70;99.90;;;;;;5035707;28;20228;-75
2022/12/19 02:54:18;;;;;;;50.97;26.15;;;2.70;99.90;;;;;;5051868;28;21118;-75
2022/12/19 02:57:09;;;;;;;51.35;25.42;;;2.70;99.90;;;;;;5050710;28;20191;-75
2022/12/19 03:00:07;;;;;;;49.88;24.25;;;2.70;99.90;;;;;;5030607;28;20177;-76
2022/12/19 03:02:39;;;;;;;46.28;23.70;;;2.70;99.90;;;;;;5029735;28;20180;-76
2022/12/19 03:05:17;;;;;;;49.67;26.48;;;2.70;99.90;;;;;;5039026;28;20203;-78
2022/12/19 03:07:55;;;;;;;47.38;25.77;;;2.70;99.90;;;;;;5057220;28;20185;-76
2022/12/19 03:10:40;;;;;;;47.42;26.02;;;2.70;99.90;;;;;;5032722;28;20199;-76
2022/12/19 03:13:46;;;;;;;46.80;26.10;;;2.80;99.90;;;;;;5029703;28;20698;-75
2022/12/19 03:16:13;;;;;;;47.88;24.90;;;2.80;99.90;;;;;;5032695;28;20674;-75
2022/12/19 03:18:39;;;;;;;45.53;24.75;;;2.70;99.90;;;;;;5039624;28;20184;-76
2022/12/19 03:21:33;;;;;;;46.92;24.45;;;2.80;99.90;;;;;;5046373;28;20259;-75
2022/12/19 03:24:00;;;;;;;48.83;25.85;;;2.80;99.90;;;;;;5033022;28;20182;-82
2022/12/19 03:26:30;;;;;;;46.72;25.67;;;2.80;99.90;;;;;;5034296;28;20624;-76
2022/12/19 03:29:08;;;;;;;51.13;25.45;;;2.90;99.90;;;;;;5034912;28;20210;-76
2022/12/19 03:31:35;;;;;;;47.80;25.33;;;2.80;99.90;;;;;;5025084;28;20184;-75
2022/12/19 03:34:17;;;;;;;44.60;24.27;;;2.80;99.90;;;;;;5030591;28;20188;-81
2022/12/19 03:36:48;;;;;;;45.22;25.45;;;2.90;99.90;;;;;;5047693;28;20238;-75
2022/12/19 03:39:16;;;;;;;49.22;25.02;;;2.80;99.90;;;;;;5032500;28;20321;-74
2022/12/19 03:44:33;;;;;;;46.47;25.65;;;2.90;99.90;;;;;;5025511;28;20325;-74
2022/12/19 03:47:21;;;;;;;46.20;26.08;;;2.90;99.90;;;;;;5033417;28;20195;-75
2022/12/19 03:49:48;;;;;;;49.70;26.52;;;2.90;99.90;;;;;;5033676;28;20184;-75
2022/12/19 03:52:22;;;;;;;52.15;27.55;;;2.90;99.90;;;;;;5033959;28;20754;-75
2022/12/19 03:55:05;;;;;;;48.92;27.60;;;3.00;99.90;;;;;;5031087;28;21449;-75
2022/12/19 03:57:41;;;;;;;49.83;25.42;;;2.90;99.90;;;;;;5030809;28;20190;-75
2022/12/19 04:00:12;;;;;;;50.53;25.92;;;3.00;99.90;;;;;;5033596;28;20184;-75
2022/12/19 04:02:45;;;;;;;50.47;28.17;;;3.00;99.90;;;;;;5033878;28;20172;-75
2022/12/19 04:05:18;;;;;;;48.30;26.65;;;3.00;99.90;;;;;;5030305;28;20216;-75
2022/12/19 04:07:44;;;;;;;48.42;26.73;;;3.00;99.90;;;;;;5060143;28;20195;-75
2022/12/19 04:10:14;;;;;;;48.80;27.73;;;3.00;99.90;;;;;;5030770;28;20226;-75
2022/12/19 04:12:50;;;;;;;57.33;30.27;;;3.00;99.90;;;;;;5033838;28;20172;-77
2022/12/19 04:15:16;;;;;;;55.17;30.13;;;3.10;99.90;;;;;;5029036;28;20692;-79
2022/12/19 04:17:54;;;;;;;55.05;26.83;;;3.10;99.90;;;;;;5028215;28;20188;-75
2022/12/19 04:20:25;;;;;;;58.38;28.73;;;3.10;99.90;;;;;;5024605;28;20187;-75
2022/12/19 04:22:50;;;;;;;53.90;28.90;;;3.10;99.90;;;;;;5042333;28;20175;-75
2022/12/19 04:25:23;;;;;;;56.92;29.88;;;3.20;99.90;;;;;;5032374;28;20222;-75
2022/12/19 04:27:54;;;;;;;59.03;31.13;;;3.20;99.90;;;;;;5033766;28;20200;-76
2022/12/19 04:30:20;;;;;;;59.97;32.00;;;3.20;99.90;;;;;;5032352;28;20191;-77
2022/12/19 04:32:47;;;;;;;50.80;26.63;;;3.30;99.90;;;;;;5033598;28;20190;-76
2022/12/19 04:35:13;;;;;;;58.92;31.65;;;3.30;99.90;;;;;;5030467;28;20270;-76
2022/12/19 04:37:39;;;;;;;59.60;30.23;;;3.30;99.90;;;;;;5027731;28;20334;-77
2022/12/19 04:40:07;;;;;;;57.65;28.95;;;3.30;99.90;;;;;;5026334;28;21871;-75
2022/12/19 04:42:33;;;;;;;48.08;26.27;;;3.40;99.90;;;;;;5030453;28;20563;-75
2022/12/19 04:44:58;;;;;;;32.30;15.38;;;3.40;99.90;;;;;;5036184;28;20223;-75
2022/12/19 04:47:24;;;;;;;53.90;30.85;;;3.40;99.90;;;;;;5030947;28;20188;-75
2022/12/19 04:49:50;;;;;;;48.67;28.38;;;3.50;99.90;;;;;;5032070;28;20567;-74
2022/12/19 04:52:16;;;;;;;52.10;30.13;;;3.50;99.90;;;;;;5036236;28;20273;-74
2022/12/19 04:54:41;;;;;;;56.40;28.42;;;3.50;99.90;;;;;;5045910;28;20838;-75
2022/12/19 04:57:07;;;;;;;52.38;29.88;;;3.50;99.90;;;;;;5029089;28;20200;-75
2022/12/19 04:59:33;;;;;;;62.33;32.67;;;3.50;99.90;;;;;;5030914;28;20763;-75
2022/12/19 05:01:59;;;;;;;54.28;29.67;;;3.50;99.90;;;;;;5020753;28;20561;-79
2022/12/19 05:04:24;;;;;;;57.58;31.40;;;3.60;99.90;;;;;;5019812;28;20586;-75
2022/12/19 05:06:50;;;;;;;57.97;33.10;;;3.60;99.90;;;;;;5032680;28;20188;-75
2022/12/19 05:09:16;;;;;;;56.63;29.40;;;3.50;99.90;;;;;;5031917;28;20233;-76
2022/12/19 05:11:42;;;;;;;60.42;30.33;;;3.60;99.90;;;;;;5064754;28;20180;-76
2022/12/19 05:14:08;;;;;;;59.13;32.05;;;3.60;99.90;;;;;;5031548;28;20197;-75
2022/12/19 05:16:34;;;;;;;56.88;31.52;;;3.70;99.90;;;;;;5046126;28;20523;-75
2022/12/19 05:19:00;;;;;;;59.05;30.63;;;3.70;99.90;;;;;;5027395;28;20188;-79
2022/12/19 05:21:26;;;;;;;62.40;32.75;;;3.70;99.90;;;;;;5044109;28;20184;-76
2022/12/19 05:23:52;;;;;;;61.25;31.45;;;3.70;99.90;;;;;;5048104;28;20585;-75
2022/12/19 05:26:18;;;;;;;57.75;31.42;;;3.70;99.90;;;;;;5030861;28;20246;-75
2022/12/19 05:28:44;;;;;;;56.20;31.08;;;3.70;99.90;;;;;;5045125;28;20183;-77
2022/12/19 05:31:13;;;;;;;54.22;30.55;;;3.80;99.90;;;;;;5031428;28;20191;-77
2022/12/19 05:33:41;;;;;;;55.10;32.38;;;3.70;99.90;;;;;;5032773;28;20179;-75
2022/12/19 05:36:09;;;;;;;53.72;31.10;;;3.80;99.90;;;;;;5027841;28;20202;-76
2022/12/19 05:38:35;;;;;;;51.45;30.63;;;3.80;99.90;;;;;;5026738;28;20257;-76
2022/12/19 05:41:13;;;;;;;56.25;30.77;;;3.80;99.90;;;;;;5030003;28;20275;-76
2022/12/19 05:43:39;;;;;;;54.65;31.08;;;3.90;99.90;;;;;;5025947;28;20251;-76
2022/12/19 05:46:06;;;;;;;48.83;28.90;;;3.80;99.90;;;;;;5033495;28;20640;-76
2022/12/19 05:48:32;;;;;;;48.58;28.52;;;3.90;99.90;;;;;;5012854;28;20632;-76
2022/12/19 05:50:57;;;;;;;52.30;29.05;;;3.90;99.90;;;;;;5027231;28;20761;-78
2022/12/19 05:53:23;;;;;;;53.58;29.85;;;3.90;99.90;;;;;;5031065;28;20176;-76
2022/12/19 05:55:49;;;;;;;48.90;26.50;;;3.90;99.90;;;;;;5030866;28;20192;-76
2022/12/19 05:58:15;;;;;;;51.08;28.98;;;3.90;99.90;;;;;;5018074;28;20574;-76
2022/12/19 06:00:41;;;;;;;47.25;27.83;;;3.90;99.90;;;;;;5027464;28;20211;-75
2022/12/19 06:03:07;;;;;;;43.55;24.67;;;4.10;99.90;;;;;;5041615;28;20190;-75
2022/12/19 06:05:36;;;;;;;42.45;25.00;;;4.00;99.90;;;;;;5036669;28;20631;-75
2022/12/19 06:08:02;;;;;;;43.22;25.25;;;4.00;99.90;;;;;;5032757;28;20215;-75
2022/12/19 06:10:27;;;;;;;46.58;25.13;;;4.00;99.90;;;;;;5030357;28;20623;-75
2022/12/19 06:12:53;;;;;;;43.38;24.98;;;4.10;99.90;;;;;;5029960;28;20294;-78
2022/12/19 06:15:19;;;;;;;40.50;24.00;;;4.10;99.90;;;;;;5038626;28;20231;-75
2022/12/19 06:17:44;;;;;;;40.45;24.33;;;4.20;99.90;;;;;;5030806;28;20199;-75
2022/12/19 06:20:10;;;;;;;35.88;19.75;;;4.20;99.90;;;;;;5025104;28;20188;-75
2022/12/19 06:22:36;;;;;;;36.33;22.50;;;4.20;99.90;;;;;;5024197;28;20609;-74
2022/12/19 06:25:02;;;;;;;38.53;22.33;;;4.20;99.90;;;;;;5060424;28;20212;-76
2022/12/19 06:27:29;;;;;;;36.53;20.33;;;4.30;99.90;;;;;;5028801;28;20654;-75
2022/12/19 06:29:54;;;;;;;36.75;21.92;;;4.30;99.90;;;;;;5030701;28;20180;-75
2022/12/19 06:32:20;;;;;;;39.05;19.52;;;4.30;99.90;;;;;;5045787;28;20703;-75
2022/12/19 06:34:46;;;;;;;37.28;22.40;;;4.30;99.90;;;;;;5030905;28;20188;-75
2022/12/19 06:37:11;;;;;;;35.13;22.25;;;4.40;99.90;;;;;;5031322;28;20515;-75
2022/12/19 06:39:37;;;;;;;36.17;22.05;;;4.40;99.90;;;;;;5024473;28;20188;-76
2022/12/19 06:44:47;;;;;;;37.00;21.05;;;4.50;99.90;;;;;;5029322;28;20220;-76
2022/12/19 06:47:13;;;;;;;33.42;20.73;;;4.40;99.90;;;;;;5031220;28;20289;-77
2022/12/19 06:49:39;;;;;;;35.28;20.75;;;4.50;99.90;;;;;;5030466;28;20184;-76
2022/12/19 06:52:05;;;;;;;32.45;18.02;;;4.50;99.90;;;;;;5034441;28;20374;-75
2022/12/19 06:54:30;;;;;;;43.40;25.67;;;4.60;99.90;;;;;;5026130;28;20187;-77
2022/12/19 06:56:56;;;;;;;33.20;19.40;;;4.60;99.90;;;;;;5028336;28;20219;-77
2022/12/19 06:59:22;;;;;;;27.73;16.88;;;4.70;99.90;;;;;;5017949;28;20275;-75
2022/12/19 07:02:20;;;;;;;27.05;17.70;;;4.70;99.90;;;;;;5035223;28;20554;-72
2022/12/19 07:04:50;;;;;;;27.98;16.73;;;4.70;99.90;;;;;;5032776;28;20203;-77
2022/12/19 07:07:16;;;;;;;28.58;17.20;;;4.80;99.90;;;;;;5029724;28;20199;-74
2022/12/19 07:09:42;;;;;;;22.67;12.73;;;4.80;99.90;;;;;;5017935;28;20539;-74
2022/12/19 07:12:07;;;;;;;28.85;17.90;;;4.90;99.90;;;;;;5015138;28;20267;-76
2022/12/19 07:14:33;;;;;;;30.40;16.35;;;4.90;99.90;;;;;;5027911;28;20920;-80
2022/12/19 07:17:01;;;;;;;26.30;16.17;;;4.90;99.90;;;;;;5029193;28;20643;-74
2022/12/19 07:19:29;;;;;;;28.40;17.27;;;4.90;99.90;;;;;;5027589;28;20203;-80
2022/12/19 07:21:55;;;;;;;28.88;17.88;;;4.90;99.90;;;;;;5030158;28;20271;-75
2022/12/19 07:24:21;;;;;;;28.10;17.08;;;5.00;99.90;;;;;;5033860;28;20184;-77
2022/12/19 07:26:47;;;;;;;27.92;17.58;;;5.00;99.90;;;;;;5066479;28;20266;-75
2022/12/19 07:29:13;;;;;;;25.70;15.63;;;5.00;99.90;;;;;;5033867;28;20614;-75
2022/12/19 07:31:39;;;;;;;29.17;17.90;;;5.00;99.90;;;;;;5028083;28;20192;-78
2022/12/19 07:34:04;;;;;;;28.77;16.75;;;5.00;99.90;;;;;;5032807;28;20233;-75
2022/12/19 07:36:30;;;;;;;27.45;17.48;;;5.00;99.90;;;;;;5033895;28;20202;-74
2022/12/19 07:38:56;;;;;;;25.05;16.17;;;5.00;99.90;;;;;;5041398;28;20192;-76
2022/12/19 07:41:22;;;;;;;24.65;15.93;;;5.10;99.90;;;;;;5029284;28;20183;-76
2022/12/19 07:43:47;;;;;;;22.73;14.52;;;5.10;99.90;;;;;;5020800;28;20192;-81
2022/12/19 07:46:13;;;;;;;22.55;15.68;;;5.10;99.90;;;;;;5045845;28;20228;-76
2022/12/19 07:48:39;;;;;;;22.80;14.27;;;5.20;99.90;;;;;;5034077;28;20207;-76
2022/12/19 07:51:05;;;;;;;22.67;14.88;;;5.20;99.90;;;;;;5031855;28;20255;-76
2022/12/19 07:53:31;;;;;;;24.58;16.00;;;5.20;99.90;;;;;;5048751;28;20177;-78
2022/12/19 07:55:57;;;;;;;26.92;15.27;;;5.20;99.90;;;;;;5026971;28;20250;-80
2022/12/19 07:58:23;;;;;;;24.25;14.70;;;5.20;99.90;;;;;;5034072;28;20176;-77
2022/12/19 08:00:56;;;;;;;22.40;15.07;;;5.30;99.90;;;;;;5033154;28;20191;-76
2022/12/19 08:03:22;;;;;;;25.92;15.77;;;5.30;99.90;;;;;;5018074;28;20171;-77
2022/12/19 08:05:48;;;;;;;22.38;14.93;;;5.30;99.90;;;;;;5045068;28;20209;-77
2022/12/19 08:08:14;;;;;;;21.50;14.13;;;5.30;99.90;;;;;;5030877;28;20192;-78
2022/12/19 08:10:40;;;;;;;23.02;14.85;;;5.40;99.90;;;;;;5027467;28;20266;-76
2022/12/19 08:13:06;;;;;;;24.30;16.08;;;5.40;99.90;;;;;;5028724;28;20606;-77
2022/12/19 08:15:31;;;;;;;23.75;15.45;;;5.40;99.90;;;;;;5025862;28;20192;-75
2022/12/19 08:17:57;;;;;;;22.85;15.43;;;5.40;99.90;;;;;;5035819;28;20176;-76
2022/12/19 08:20:23;;;;;;;22.60;15.57;;;5.50;99.90;;;;;;5042264;28;20608;-76
2022/12/19 08:22:50;;;;;;;20.45;14.57;;;5.40;99.90;;;;;;5032509;28;20200;-76
2022/12/19 08:25:16;;;;;;;22.92;14.48;;;5.50;99.90;;;;;;5025350;28;20235;-82
2022/12/19 08:27:41;;;;;;;18.17;11.73;;;5.50;99.90;;;;;;5060041;28;20188;-76
2022/12/19 08:30:08;;;;;;;19.60;13.88;;;5.50;99.90;;;;;;5028251;28;20243;-76
2022/12/19 08:32:34;;;;;;;20.83;15.10;;;5.50;99.90;;;;;;5033578;28;20229;-79
2022/12/19 08:34:59;;;;;;;22.27;14.70;;;5.50;99.90;;;;;;5062200;28;20652;-76
2022/12/19 08:37:25;;;;;;;20.58;14.55;;;5.60;99.90;;;;;;5029529;28;20188;-76
2022/12/19 08:39:51;;;;;;;19.63;13.38;;;5.60;99.90;;;;;;5049987;28;20291;-77
2022/12/19 08:42:16;;;;;;;23.55;15.20;;;5.60;99.90;;;;;;5045466;28;20217;-75
2022/12/19 08:44:42;;;;;;;19.17;13.52;;;5.60;99.90;;;;;;5045891;28;20338;-78
2022/12/19 08:47:08;;;;;;;19.00;13.85;;;5.70;99.90;;;;;;5032242;28;20183;-77
2022/12/19 08:49:34;;;;;;;18.98;13.60;;;5.70;99.90;;;;;;5033205;28;20216;-76
2022/12/19 08:52:00;;;;;;;21.25;13.90;;;5.70;99.90;;;;;;5025938;28;20660;-78
2022/12/19 08:54:26;;;;;;;20.08;13.75;;;5.70;99.90;;;;;;5032064;28;20636;-77
2022/12/19 08:56:51;;;;;;;19.02;14.35;;;5.80;99.90;;;;;;5033331;28;20279;-77
2022/12/19 08:59:17;;;;;;;20.90;14.02;;;5.80;99.90;;;;;;5032548;28;20651;-77
2022/12/19 09:01:43;;;;;;;21.63;14.00;;;5.80;99.90;;;;;;5029414;28;20640;-77
2022/12/19 09:04:09;;;;;;;20.80;14.25;;;5.80;99.90;;;;;;5018511;28;20195;-76
2022/12/19 09:06:35;;;;;;;19.38;14.05;;;5.90;99.90;;;;;;5034805;28;20585;-77
2022/12/19 09:09:03;;;;;;;19.92;14.15;;;5.90;99.90;;;;;;5032532;28;20221;-79
2022/12/19 09:11:29;;;;;;;23.02;15.23;;;5.90;99.90;;;;;;5060067;28;20735;-77
2022/12/19 09:13:56;;;;;;;22.02;14.27;;;6.00;99.90;;;;;;5043919;28;20188;-78
2022/12/19 09:16:24;;;;;;;22.10;15.93;;;6.00;99.90;;;;;;5029705;28;20192;-80
2022/12/19 09:18:52;;;;;;;22.77;15.93;;;6.00;99.90;;;;;;5031330;28;20190;-76
2022/12/19 09:21:21;;;;;;;21.88;15.50;;;6.10;99.90;;;;;;5028762;28;20179;-76
2022/12/19 09:23:49;;;;;;;19.98;15.35;;;6.10;99.90;;;;;;5032444;28;20184;-76
2022/12/19 09:26:15;;;;;;;21.75;16.02;;;6.20;99.90;;;;;;5030335;28;20208;-76
2022/12/19 09:28:41;;;;;;;22.80;15.82;;;6.20;99.90;;;;;;5026655;28;20208;-76
2022/12/19 09:31:13;;;;;;;23.63;15.90;;;6.20;99.90;;;;;;5025406;28;20611;-75
2022/12/19 09:33:39;;;;;;;21.83;15.25;;;6.30;99.90;;;;;;5024999;28;20176;-76
2022/12/19 09:36:05;;;;;;;23.98;17.38;;;6.30;99.90;;;;;;5024976;28;20199;-77
2022/12/19 09:38:32;;;;;;;23.23;15.82;;;6.30;99.90;;;;;;5027330;28;20183;-77
2022/12/19 09:41:20;;;;;;;23.42;17.30;;;6.30;99.90;;;;;;5024502;28;20183;-80
2022/12/19 09:43:53;;;;;;;24.55;16.25;;;6.40;99.90;;;;;;5030239;28;20255;-76
2022/12/19 09:46:29;;;;;;;22.50;16.83;;;6.50;99.90;;;;;;5030515;28;20290;-76
2022/12/19 09:48:56;;;;;;;24.50;17.60;;;6.50;99.90;;;;;;5030677;28;20192;-77
2022/12/19 09:51:45;;;;;;;24.85;16.77;;;6.50;99.90;;;;;;5029217;28;20242;-78
2022/12/19 09:54:14;;;;;;;24.73;17.80;;;6.50;99.90;;;;;;5026472;28;20192;-77
2022/12/19 09:56:42;;;;;;;24.80;16.33;;;6.60;99.90;;;;;;5032699;28;20211;-76
2022/12/19 09:59:50;;;;;;;27.52;18.45;;;6.60;99.90;;;;;;5046794;28;20593;-76
2022/12/19 10:02:40;;;;;;;26.88;18.08;;;6.60;99.90;;;;;;5017385;28;20722;-76
2022/12/19 10:05:15;;;;;;;24.00;17.38;;;6.70;99.90;;;;;;5027415;28;20219;-78
2022/12/19 10:07:44;;;;;;;24.90;16.63;;;6.70;99.90;;;;;;5051098;28;20263;-77
2022/12/19 10:10:20;;;;;;;27.45;18.50;;;6.70;99.90;;;;;;5030354;28;20619;-78
2022/12/19 10:12:59;;;;;;;26.65;18.40;;;6.80;99.90;;;;;;5025955;28;20195;-78
2022/12/19 10:15:59;;;;;;;25.40;18.08;;;6.80;99.90;;;;;;5027762;28;20192;-76
2022/12/19 10:18:41;;;;;;;27.33;17.73;;;6.90;99.90;;;;;;5032664;28;20283;-75
2022/12/19 10:21:41;;;;;;;25.40;17.75;;;6.90;99.90;;;;;;5033715;28;20187;-77
2022/12/19 10:24:21;;;;;;;26.35;18.67;;;7.00;99.90;;;;;;5024563;28;20224;-78
2022/12/19 10:26:51;;;;;;;26.80;18.42;;;7.00;99.90;;;;;;5035822;28;20607;-77
2022/12/19 10:29:41;;;;;;;28.88;19.17;;;7.10;99.90;;;;;;5034867;28;20168;-77
2022/12/19 10:32:30;;;;;;;26.42;18.13;;;7.10;99.90;;;;;;5017633;28;20219;-78
2022/12/19 10:34:56;;;;;;;24.05;17.30;;;7.10;99.90;;;;;;5056688;28;20179;-77
2022/12/19 10:37:36;;;;;;;26.55;18.42;;;7.20;99.90;;;;;;5033177;28;20196;-77
2022/12/19 10:40:19;;;;;;;24.45;18.25;;;7.20;99.90;;;;;;5026836;28;20241;-79
2022/12/19 10:42:59;;;;;;;27.00;19.52;;;7.30;99.90;;;;;;5033856;28;20211;-79
2022/12/19 10:45:59;;;;;;;27.50;18.85;;;7.30;99.90;;;;;;5030948;28;20229;-78
2022/12/19 10:48:25;;;;;;;22.13;15.32;;;7.30;99.90;;;;;;5021934;28;20200;-76
2022/12/19 10:50:50;;;;;;;27.70;18.17;;;7.40;99.90;;;;;;5033406;28;20257;-76
2022/12/19 10:53:25;;;;;;;23.77;17.50;;;7.40;99.90;;;;;;5035028;28;20222;-77
2022/12/19 10:55:52;;;;;;;26.90;18.20;;;7.40;99.90;;;;;;5044979;28;20195;-77
2022/12/19 10:58:21;;;;;;;25.77;18.02;;;7.50;99.90;;;;;;5029682;28;20215;-77
2022/12/19 11:01:10;;;;;;;30.33;20.52;;;7.50;99.90;;;;;;5029321;28;20188;-78
2022/12/19 11:03:37;;;;;;;26.42;19.10;;;7.50;99.90;;;;;;5025932;28;20192;-77
2022/12/19 11:06:05;;;;;;;25.73;17.25;;;7.50;99.90;;;;;;5044914;28;20210;-75
2022/12/19 11:08:35;;;;;;;24.88;17.75;;;7.60;99.90;;;;;;5034727;28;20184;-76
2022/12/19 11:11:04;;;;;;;24.95;18.02;;;7.60;99.90;;;;;;5035942;28;20184;-78
2022/12/19 11:13:43;;;;;;;24.25;17.88;;;7.60;99.90;;;;;;5028425;28;20215;-76
2022/12/19 11:16:09;;;;;;;26.20;18.33;;;7.70;99.90;;;;;;5032359;28;20196;-76
2022/12/19 11:18:43;;;;;;;27.70;17.95;;;7.70;99.90;;;;;;5034680;28;20176;-76
2022/12/19 11:21:19;;;;;;;25.65;17.25;;;7.70;99.90;;;;;;5047193;28;20184;-78
2022/12/19 11:24:01;;;;;;;25.05;18.05;;;7.80;99.90;;;;;;5014987;28;21029;-77
2022/12/19 11:26:39;;;;;;;25.95;17.42;;;7.80;99.90;;;;;;5034601;28;20208;-78
2022/12/19 11:29:35;;;;;;;24.98;17.45;;;7.80;99.90;;;;;;5032885;28;20180;-77
2022/12/19 11:32:02;;;;;;;26.08;18.55;;;7.90;99.90;;;;;;5027854;28;20168;-81
2022/12/19 11:34:31;;;;;;;23.83;16.17;;;7.90;99.90;;;;;;5027093;28;20192;-76
2022/12/19 11:37:15;;;;;;;25.45;17.05;;;7.90;99.90;;;;;;5033392;28;20190;-77
2022/12/19 11:39:54;;;;;;;24.38;16.85;;;7.90;99.90;;;;;;5030259;28;20210;-78
2022/12/19 11:42:28;;;;;;;23.33;17.60;;;8.00;99.90;;;;;;5039631;28;20262;-76
2022/12/19 11:45:06;;;;;;;20.45;14.65;;;8.00;99.90;;;;;;5023145;28;20282;-76
2022/12/19 11:47:39;;;;;;;21.90;16.15;;;8.00;99.90;;;;;;5019812;28;20184;-75
2022/12/19 11:50:31;;;;;;;25.70;17.02;;;8.10;99.90;;;;;;5018480;28;20273;-77
2022/12/19 11:53:22;;;;;;;23.02;15.52;;;8.10;99.90;;;;;;5027312;28;20176;-76
2022/12/19 11:55:57;;;;;;;22.90;15.30;;;8.20;99.90;;;;;;5032552;28;20188;-79
2022/12/19 11:58:25;;;;;;;22.67;15.55;;;8.20;99.90;;;;;;5039765;28;20187;-78
2022/12/19 12:01:22;;;;;;;22.65;16.67;;;8.20;99.90;;;;;;5019149;28;20183;-80
2022/12/19 12:04:23;;;;;;;24.85;16.38;;;8.20;99.90;;;;;;5023160;28;20590;-75
2022/12/19 12:06:54;;;;;;;23.67;15.43;;;8.30;99.90;;;;;;5014286;28;20187;-76
2022/12/19 12:09:30;;;;;;;22.02;15.60;;;8.30;99.90;;;;;;5016199;28;20803;-77
2022/12/19 12:12:16;;;;;;;20.65;14.75;;;8.40;99.90;;;;;;5063130;28;20179;-77
2022/12/19 12:14:51;;;;;;;21.52;14.55;;;8.30;99.90;;;;;;5025119;28;20197;-76
2022/12/19 12:17:46;;;;;;;22.55;14.90;;;8.40;99.90;;;;;;5014195;28;20164;-77
2022/12/19 12:20:53;;;;;;;26.35;15.77;;;8.40;99.90;;;;;;5021900;28;20215;-76
2022/12/19 12:23:25;;;;;;;25.02;15.07;;;8.40;99.90;;;;;;4987994;28;20196;-77
2022/12/19 12:26:03;;;;;;;21.17;14.10;;;8.50;99.90;;;;;;5031976;28;20223;-78
2022/12/19 12:29:01;;;;;;;19.33;14.32;;;8.50;99.90;;;;;;5033598;28;20576;-76
2022/12/19 12:31:32;;;;;;;20.80;15.18;;;8.60;99.90;;;;;;5032997;28;20477;-79
2022/12/19 12:34:01;;;;;;;21.02;14.68;;;8.60;99.90;;;;;;5027015;28;20183;-80
2022/12/19 12:36:49;;;;;;;20.67;14.98;;;8.60;99.90;;;;;;5027970;28;20183;-76
2022/12/19 12:39:22;;;;;;;17.27;13.82;;;8.60;99.90;;;;;;5011319;28;20224;-75
2022/12/19 12:42:04;;;;;;;18.50;13.05;;;8.70;99.90;;;;;;5032375;28;20590;-75
2022/12/19 12:44:37;;;;;;;21.35;14.52;;;8.70;99.90;;;;;;5017798;28;20195;-79
2022/12/19 12:47:23;;;;;;;19.17;13.63;;;8.70;99.90;;;;;;5025940;28;20624;-76
2022/12/19 12:49:59;;;;;;;21.73;14.48;;;8.70;99.90;;;;;;5019451;28;20179;-76
2022/12/19 12:52:46;;;;;;;19.60;14.30;;;8.80;99.90;;;;;;5047627;28;20223;-77
2022/12/19 12:55:27;;;;;;;23.23;15.35;;;8.80;99.90;;;;;;5026209;28;20191;-77
2022/12/19 12:57:53;;;;;;;22.80;14.88;;;8.80;99.90;;;;;;5020755;28;20183;-77
2022/12/19 13:00:24;;;;;;;17.25;14.30;;;8.80;99.90;;;;;;5062447;28;20215;-77
2022/12/19 13:03:04;;;;;;;20.63;13.98;;;8.80;99.90;;;;;;5034607;28;20176;-76
2022/12/19 13:05:45;;;;;;;22.83;13.95;;;8.80;99.90;;;;;;5025166;28;20231;-75